<?xml version="1.0" encoding="UTF-8" standalone="no" ?>
<gpx xmlns="http://www.topografix.com/GPX/1/1" xmlns:xsi="http://www.w3.org/2001/XMLSchema-instance" xsi:schemaLocation="http://www.topografix.com/GPX/1/1 http://www.topografix.com/GPX/1/1/gpx.xsd" version="1.1" creator="VisuGPX - https://www.visugpx.com">
  <metadata>
    <name>StLaurentOust_Houssa_13-19km</name>
    <desc><![CDATA[gnerando idor: 7170662_7072306_7072310_7072327]]></desc>
  </metadata>
  <trk>
    <name><![CDATA[StLaurentOust_HoussaV2_15,5km-7072310]]></name>
    <extensions>
      <line xmlns="http://www.topografix.com/GPX/gpx_style/0/2">
        <color>FF0000</color>
        <width>4</width>
      </line>
    </extensions>
    <trkseg>
      <trkpt lat="47.79441" lon="-2.31912">
        <ele>15</ele>
        <time>2023-11-13T07:27:24Z</time>
      </trkpt>
      <trkpt lat="47.79413" lon="-2.32112">
        <ele>13</ele>
        <time>2023-11-13T07:30:27Z</time>
      </trkpt>
      <trkpt lat="47.79171" lon="-2.31961">
        <ele>12</ele>
        <time>2023-11-13T07:36:17Z</time>
      </trkpt>
      <trkpt lat="47.79015" lon="-2.31734">
        <ele>11</ele>
        <time>2023-11-13T07:41:08Z</time>
      </trkpt>
      <trkpt lat="47.79055" lon="-2.31648">
        <ele>14</ele>
        <time>2023-11-13T07:42:42Z</time>
      </trkpt>
      <trkpt lat="47.78951" lon="-2.31532">
        <ele>12</ele>
        <time>2023-11-13T07:45:36Z</time>
      </trkpt>
      <trkpt lat="47.79127" lon="-2.3085">
        <ele>28</ele>
        <time>2023-11-13T07:56:31Z</time>
      </trkpt>
      <trkpt lat="47.78597" lon="-2.30489">
        <ele>47</ele>
        <time>2023-11-13T08:09:28Z</time>
      </trkpt>
      <trkpt lat="47.78695" lon="-2.30228">
        <ele>45</ele>
        <time>2023-11-13T08:13:57Z</time>
      </trkpt>
      <trkpt lat="47.78577" lon="-2.3012">
        <ele>65</ele>
        <time>2023-11-13T08:17:01Z</time>
      </trkpt>
      <trkpt lat="47.78995" lon="-2.2888">
        <ele>61</ele>
        <time>2023-11-13T08:37:45Z</time>
      </trkpt>
      <trkpt lat="47.79413" lon="-2.29009">
        <ele>60</ele>
        <time>2023-11-13T08:47:15Z</time>
      </trkpt>
      <trkpt lat="47.79407" lon="-2.28528">
        <ele>70</ele>
        <time>2023-11-13T08:54:26Z</time>
      </trkpt>
      <trkpt lat="47.79029" lon="-2.28279">
        <ele>79</ele>
        <time>2023-11-13T09:03:38Z</time>
      </trkpt>
      <trkpt lat="47.79009" lon="-2.27683">
        <ele>75</ele>
        <time>2023-11-13T09:12:33Z</time>
      </trkpt>
      <trkpt lat="47.78897" lon="-2.27421">
        <ele>93</ele>
        <time>2023-11-13T09:17:11Z</time>
      </trkpt>
      <trkpt lat="47.78972" lon="-2.27262">
        <ele>94</ele>
        <time>2023-11-13T09:20:05Z</time>
      </trkpt>
      <trkpt lat="47.7913" lon="-2.27202">
        <ele>72</ele>
        <time>2023-11-13T09:23:43Z</time>
      </trkpt>
      <trkpt lat="47.79122" lon="-2.26979">
        <ele>74</ele>
        <time>2023-11-13T09:27:03Z</time>
      </trkpt>
      <trkpt lat="47.79087" lon="-2.26679">
        <ele>85</ele>
        <time>2023-11-13T09:31:36Z</time>
      </trkpt>
      <trkpt lat="47.78977" lon="-2.264">
        <ele>96</ele>
        <time>2023-11-13T09:36:26Z</time>
      </trkpt>
      <trkpt lat="47.78934" lon="-2.25945">
        <ele>83</ele>
        <time>2023-11-13T09:43:18Z</time>
      </trkpt>
      <trkpt lat="47.78637" lon="-2.25786">
        <ele>90</ele>
        <time>2023-11-13T09:50:19Z</time>
      </trkpt>
      <trkpt lat="47.78649" lon="-2.25958">
        <ele>90</ele>
        <time>2023-11-13T09:52:54Z</time>
      </trkpt>
      <trkpt lat="47.78608" lon="-2.26164">
        <ele>90</ele>
        <time>2023-11-13T09:56:07Z</time>
      </trkpt>
      <trkpt lat="47.78473" lon="-2.26387">
        <ele>86</ele>
        <time>2023-11-13T10:00:36Z</time>
      </trkpt>
      <trkpt lat="47.7851" lon="-2.26623">
        <ele>88</ele>
        <time>2023-11-13T10:04:14Z</time>
      </trkpt>
      <trkpt lat="47.78464" lon="-2.27039">
        <ele>89</ele>
        <time>2023-11-13T10:10:32Z</time>
      </trkpt>
      <trkpt lat="47.78046" lon="-2.27108">
        <ele>64</ele>
        <time>2023-11-13T10:19:53Z</time>
      </trkpt>
      <trkpt lat="47.7796" lon="-2.27833">
        <ele>73</ele>
        <time>2023-11-13T10:30:53Z</time>
      </trkpt>
      <trkpt lat="47.77902" lon="-2.28249">
        <ele>78</ele>
        <time>2023-11-13T10:37:14Z</time>
      </trkpt>
      <trkpt lat="47.77755" lon="-2.28588">
        <ele>79</ele>
        <time>2023-11-13T10:43:16Z</time>
      </trkpt>
      <trkpt lat="47.77936" lon="-2.28631">
        <ele>86</ele>
        <time>2023-11-13T10:47:20Z</time>
      </trkpt>
      <trkpt lat="47.77962" lon="-2.28691">
        <ele>88</ele>
        <time>2023-11-13T10:48:24Z</time>
      </trkpt>
      <trkpt lat="47.77859" lon="-2.29116">
        <ele>74</ele>
        <time>2023-11-13T10:55:10Z</time>
      </trkpt>
      <trkpt lat="47.78066" lon="-2.29232">
        <ele>88</ele>
        <time>2023-11-13T11:00:05Z</time>
      </trkpt>
      <trkpt lat="47.7798" lon="-2.29618">
        <ele>79</ele>
        <time>2023-11-13T11:06:09Z</time>
      </trkpt>
      <trkpt lat="47.7832" lon="-2.29811">
        <ele>98</ele>
        <time>2023-11-13T11:14:15Z</time>
      </trkpt>
      <trkpt lat="47.78392" lon="-2.30253">
        <ele>84</ele>
        <time>2023-11-13T11:21:03Z</time>
      </trkpt>
      <trkpt lat="47.78415" lon="-2.3073">
        <ele>77</ele>
        <time>2023-11-13T11:28:12Z</time>
      </trkpt>
      <trkpt lat="47.7828" lon="-2.30889">
        <ele>73</ele>
        <time>2023-11-13T11:32:01Z</time>
      </trkpt>
      <trkpt lat="47.78357" lon="-2.31253">
        <ele>64</ele>
        <time>2023-11-13T11:37:44Z</time>
      </trkpt>
      <trkpt lat="47.78438" lon="-2.31313">
        <ele>57</ele>
        <time>2023-11-13T11:39:44Z</time>
      </trkpt>
      <trkpt lat="47.78464" lon="-2.31172">
        <ele>68</ele>
        <time>2023-11-13T11:41:55Z</time>
      </trkpt>
      <trkpt lat="47.78418" lon="-2.31064">
        <ele>79</ele>
        <time>2023-11-13T11:43:50Z</time>
      </trkpt>
      <trkpt lat="47.78421" lon="-2.30996">
        <ele>79</ele>
        <time>2023-11-13T11:44:51Z</time>
      </trkpt>
      <trkpt lat="47.78487" lon="-2.31125">
        <ele>66</ele>
        <time>2023-11-13T11:47:17Z</time>
      </trkpt>
      <trkpt lat="47.78528" lon="-2.3106">
        <ele>57</ele>
        <time>2023-11-13T11:48:36Z</time>
      </trkpt>
      <trkpt lat="47.78516" lon="-2.30871">
        <ele>58</ele>
        <time>2023-11-13T11:51:27Z</time>
      </trkpt>
      <trkpt lat="47.78476" lon="-2.30657">
        <ele>65</ele>
        <time>2023-11-13T11:54:46Z</time>
      </trkpt>
      <trkpt lat="47.78545" lon="-2.30498">
        <ele>56</ele>
        <time>2023-11-13T11:57:36Z</time>
      </trkpt>
      <trkpt lat="47.78574" lon="-2.30567">
        <ele>47</ele>
        <time>2023-11-13T11:58:49Z</time>
      </trkpt>
      <trkpt lat="47.7862" lon="-2.30481">
        <ele>45</ele>
        <time>2023-11-13T12:00:27Z</time>
      </trkpt>
      <trkpt lat="47.79136" lon="-2.30811">
        <ele>27</ele>
        <time>2023-11-13T12:12:57Z</time>
      </trkpt>
      <trkpt lat="47.78951" lon="-2.31494">
        <ele>13</ele>
        <time>2023-11-13T12:23:57Z</time>
      </trkpt>
      <trkpt lat="47.79122" lon="-2.31682">
        <ele>15</ele>
        <time>2023-11-13T12:28:40Z</time>
      </trkpt>
      <trkpt lat="47.79338" lon="-2.31807">
        <ele>15</ele>
        <time>2023-11-13T12:33:50Z</time>
      </trkpt>
      <trkpt lat="47.79445" lon="-2.31983">
        <ele>14</ele>
        <time>2023-11-13T12:37:23Z</time>
      </trkpt>
    </trkseg>
  </trk>
</gpx>